createdAt,value
2022-08-17T00:01:36.340Z,33.75
2022-08-17T00:06:48.668Z,31.27
2022-08-17T00:09:18.344Z,31.88
2022-08-17T00:12:41.924Z,31.83
2022-08-17T00:14:36.282Z,30.70
2022-08-17T00:17:06.472Z,31.75
2022-08-17T00:19:34.061Z,29.90
2022-08-17T00:22:30.857Z,29.88
2022-08-17T00:24:50.374Z,28.60
2022-08-17T00:27:17.698Z,30.33
2022-08-17T00:29:45.887Z,30.30
2022-08-17T00:33:22.893Z,29.15
2022-08-17T00:35:05.767Z,28.42
2022-08-17T00:37:32.576Z,28.75
2022-08-17T00:39:59.595Z,27.92
2022-08-17T00:42:30.994Z,27.45
2022-08-17T00:44:58.615Z,27.35
2022-08-17T00:47:25.780Z,26.60
2022-08-17T00:49:53.022Z,25.77
2022-08-17T00:52:23.570Z,26.07
2022-08-17T00:54:53.987Z,25.08
2022-08-17T00:57:30.633Z,24.30
2022-08-17T01:00:03.797Z,23.65
2022-08-17T01:02:42.112Z,23.92
2022-08-17T01:05:19.452Z,23.90
2022-08-17T01:07:50.975Z,23.23
2022-08-17T01:11:00.476Z,22.33
2022-08-17T01:13:10.703Z,22.60
2022-08-17T01:18:08.599Z,23.33
2022-08-17T01:20:48.574Z,24.60
2022-08-17T01:23:20.791Z,22.35
2022-08-17T01:25:54.022Z,24.67
2022-08-17T01:28:53.138Z,23.33
2022-08-17T01:31:09.429Z,24.10
2022-08-17T01:36:06.890Z,22.50
2022-08-17T01:38:35.618Z,20.60
2022-08-17T01:41:06.904Z,20.77
2022-08-17T01:44:02.137Z,19.08
2022-08-17T01:46:33.439Z,19.35
2022-08-17T01:49:01.196Z,19.20
2022-08-17T01:51:32.855Z,18.63
2022-08-17T01:54:05.284Z,18.77
2022-08-17T01:56:34.183Z,17.25
2022-08-17T01:59:01.071Z,18.40
2022-08-17T02:01:30.094Z,16.67
2022-08-17T02:04:01.262Z,19.50
2022-08-17T02:06:52.410Z,17.67
2022-08-17T02:09:25.284Z,17.58
2022-08-17T02:11:57.150Z,18.27
2022-08-17T02:14:24.769Z,18.85
2022-08-17T02:16:52.473Z,22.85
2022-08-17T02:19:19.523Z,20.33
2022-08-17T02:21:48.188Z,21.85
2022-08-17T02:24:58.461Z,19.55
2022-08-17T02:27:07.043Z,22.17
2022-08-17T02:29:33.788Z,21.73
2022-08-17T02:32:01.788Z,23.08
2022-08-17T02:34:30.053Z,21.10
2022-08-17T02:36:56.797Z,21.35
2022-08-17T02:39:23.657Z,21.45
2022-08-17T02:41:50.583Z,19.67
2022-08-17T02:44:35.441Z,20.73
2022-08-17T02:47:04.239Z,21.02
2022-08-17T02:49:31.158Z,20.77
2022-08-17T02:51:58.776Z,20.80
2022-08-17T02:54:41.144Z,19.13
2022-08-17T02:57:10.856Z,20.15
2022-08-17T02:59:39.523Z,19.67
2022-08-17T03:02:08.519Z,19.65
2022-08-17T03:04:35.619Z,20.20
2022-08-17T03:07:03.566Z,19.40
2022-08-17T03:09:30.413Z,19.05
2022-08-17T03:12:28.716Z,19.02
2022-08-17T03:14:55.397Z,18.48
2022-08-17T03:17:22.098Z,18.05
2022-08-17T03:19:48.884Z,18.45
2022-08-17T03:22:36.955Z,18.60
2022-08-17T03:25:03.102Z,16.10
2022-08-17T03:27:30.719Z,17.17
2022-08-17T03:29:57.458Z,18.35
2022-08-17T03:32:24.167Z,17.65
2022-08-17T03:34:50.877Z,17.92
2022-08-17T03:37:17.591Z,17.73
2022-08-17T03:39:44.306Z,16.55
2022-08-17T03:42:32.224Z,17.77
2022-08-17T03:45:00.261Z,18.08
2022-08-17T03:47:45.766Z,16.83
2022-08-17T03:50:32.741Z,17.38
2022-08-17T03:53:18.737Z,16.70
2022-08-17T03:56:04.153Z,15.73
2022-08-17T03:58:30.937Z,15.63
2022-08-17T04:00:57.778Z,16.85
2022-08-17T04:03:24.459Z,16.95
2022-08-17T04:05:51.156Z,17.02
2022-08-17T04:08:17.846Z,17.75
2022-08-17T04:10:45.172Z,17.75
2022-08-17T04:13:12.565Z,18.83
2022-08-17T04:15:39.469Z,18.60
2022-08-17T04:18:07.609Z,18.92
2022-08-17T04:20:37.602Z,19.83
2022-08-17T04:23:11.964Z,19.73
2022-08-17T04:25:42.945Z,19.15
2022-08-17T04:28:15.985Z,19.15
2022-08-17T04:30:45.456Z,19.60
2022-08-17T04:33:26.469Z,20.90
2022-08-17T04:36:05.395Z,19.98
2022-08-17T04:38:35.337Z,22.13
2022-08-17T04:41:24.995Z,20.70
2022-08-17T04:43:56.005Z,21.33
2022-08-17T04:46:28.533Z,21.92
2022-08-17T04:48:57.593Z,22.35
2022-08-17T04:51:29.209Z,20.60
2022-08-17T04:53:59.880Z,22.40
2022-08-17T04:56:28.309Z,20.90
2022-08-17T04:59:01.294Z,20.23
2022-08-17T05:01:31.795Z,20.40
2022-08-17T05:04:20.749Z,18.35
2022-08-17T05:06:49.501Z,17.80
2022-08-17T05:09:17.521Z,16.73
2022-08-17T05:11:45.624Z,14.07
2022-08-17T05:16:39.585Z,12.07
2022-08-17T05:19:06.621Z,11.50
2022-08-17T05:21:33.381Z,8.60
2022-08-17T05:24:00.243Z,7.60
2022-08-17T05:26:28.806Z,8.45
2022-08-17T05:28:59.609Z,6.82
2022-08-17T05:31:29.379Z,6.43
2022-08-17T05:33:56.199Z,7.25
2022-08-17T05:36:42.332Z,5.78
2022-08-17T05:39:10.755Z,5.75
2022-08-17T05:41:43.481Z,4.68
2022-08-17T05:44:10.786Z,5.18
2022-08-17T05:46:41.742Z,5.63
2022-08-17T05:49:08.772Z,6.03
2022-08-17T05:52:08.421Z,5.18
2022-08-17T05:55:09.322Z,4.60
2022-08-17T05:57:47.649Z,5.15
2022-08-17T06:00:41.895Z,5.95
2022-08-17T06:03:40.050Z,4.32
2022-08-17T06:08:59.196Z,4.72
2022-08-17T06:11:37.382Z,5.05
2022-08-17T06:14:18.981Z,4.80
2022-08-17T06:16:50.709Z,4.95
2022-08-17T06:19:31.455Z,5.15
2022-08-17T06:21:59.933Z,5.25
2022-08-17T06:24:29.137Z,5.50
2022-08-17T06:27:06.136Z,5.10
2022-08-17T06:29:37.143Z,5.97
2022-08-17T06:32:08.478Z,5.07
2022-08-17T06:34:37.402Z,5.90
2022-08-17T06:37:31.082Z,5.47
2022-08-17T06:40:22.797Z,7.20
2022-08-17T06:43:07.070Z,5.57
2022-08-17T06:46:13.023Z,5.97
2022-08-17T06:48:42.615Z,6.15
2022-08-17T06:51:24.540Z,6.18
2022-08-17T06:54:05.550Z,6.43
2022-08-17T06:56:54.778Z,6.50
2022-08-17T06:59:55.150Z,5.82
2022-08-17T07:02:52.730Z,6.78
2022-08-17T07:05:24.217Z,8.52
2022-08-17T07:08:18.723Z,6.75
2022-08-17T07:11:00.576Z,6.75
2022-08-17T07:14:05.206Z,7.32
2022-08-17T07:16:51.325Z,8.27
2022-08-17T07:19:26.452Z,8.20
2022-08-17T07:22:01.641Z,8.45
2022-08-17T07:24:43.193Z,8.75
2022-08-17T07:27:27.485Z,10.15
2022-08-17T07:30:10.234Z,10.15
2022-08-17T07:32:46.929Z,10.27
2022-08-17T07:35:21.025Z,10.27
2022-08-17T07:38:25.725Z,11.55
2022-08-17T07:41:02.006Z,12.63
2022-08-17T07:43:40.993Z,12.02
2022-08-17T07:46:52.996Z,11.07
2022-08-17T07:49:34.726Z,10.90
2022-08-17T07:52:47.637Z,11.60
2022-08-17T07:55:34.944Z,10.57
2022-08-17T07:58:03.334Z,10.43
2022-08-17T08:00:32.043Z,10.15
2022-08-17T08:03:14.816Z,10.63
2022-08-17T08:05:56.148Z,12.18
2022-08-17T08:08:33.824Z,10.68
2022-08-17T08:11:02.504Z,11.07
2022-08-17T08:13:30.736Z,12.00
2022-08-17T08:18:54.943Z,12.63
2022-08-17T08:21:29.109Z,13.38
2022-08-17T08:24:00.759Z,13.02
2022-08-17T08:26:55.552Z,14.05
2022-08-17T08:29:28.451Z,14.23
2022-08-17T08:32:17.393Z,13.15
2022-08-17T08:35:06.575Z,13.07
2022-08-17T08:37:49.424Z,10.98
2022-08-17T08:40:27.824Z,9.38
2022-08-17T08:43:06.465Z,9.63
2022-08-17T08:45:56.456Z,9.50
2022-08-17T08:48:53.141Z,8.25
2022-08-17T08:51:46.560Z,8.80
2022-08-17T08:54:26.430Z,8.85
2022-08-17T08:57:23.207Z,8.40
2022-08-17T09:00:09.628Z,8.55
2022-08-17T09:03:03.026Z,9.70
2022-08-17T09:05:57.140Z,8.30
2022-08-17T09:08:42.595Z,7.95
2022-08-17T09:11:17.862Z,8.07
2022-08-17T09:13:44.516Z,8.10
2022-08-17T09:16:29.780Z,8.07
2022-08-17T09:19:23.259Z,6.90
2022-08-17T09:21:54.615Z,6.57
2022-08-17T09:25:00.003Z,6.43
2022-08-17T09:27:48.466Z,6.55
2022-08-17T09:30:15.286Z,6.95
2022-08-17T09:32:49.888Z,7.00
2022-08-17T09:35:20.042Z,6.72
2022-08-17T09:38:33.023Z,6.35
2022-08-17T09:41:34.693Z,7.10
2022-08-17T09:44:23.180Z,7.10
2022-08-17T09:47:17.346Z,6.60
2022-08-17T09:49:56.772Z,5.85
2022-08-17T09:52:28.853Z,5.88
2022-08-17T09:54:57.775Z,5.70
2022-08-17T09:57:59.934Z,7.15
2022-08-17T10:00:34.660Z,7.45
2022-08-17T10:03:16.203Z,8.95
2022-08-17T10:06:13.266Z,7.80
2022-08-17T10:08:51.874Z,9.20
2022-08-17T10:11:52.611Z,9.15
2022-08-17T10:14:36.785Z,7.95
2022-08-17T10:17:27.775Z,9.15
2022-08-17T10:20:10.668Z,9.98
2022-08-17T10:23:12.115Z,9.48
2022-08-17T10:26:08.682Z,9.13
2022-08-17T10:29:01.703Z,9.50
2022-08-17T10:31:51.533Z,9.85
2022-08-17T10:34:41.100Z,9.55
2022-08-17T10:37:25.300Z,10.88
2022-08-17T10:40:13.125Z,10.00
2022-08-17T10:45:29.496Z,11.05
2022-08-17T10:48:22.261Z,10.38
2022-08-17T10:50:58.164Z,11.43
2022-08-17T10:53:40.643Z,10.68
2022-08-17T10:56:41.956Z,11.02
2022-08-17T10:59:09.115Z,11.18
2022-08-17T11:01:37.855Z,10.57
2022-08-17T11:04:39.454Z,10.40
2022-08-17T11:07:36.293Z,10.75
2022-08-17T11:10:27.002Z,10.82
2022-08-17T11:13:23.141Z,11.30
2022-08-17T11:16:08.903Z,10.77
2022-08-17T11:18:54.468Z,11.20
2022-08-17T11:21:52.678Z,10.52
2022-08-17T11:24:28.224Z,10.85
2022-08-17T11:27:01.188Z,10.32
2022-08-17T11:29:49.449Z,10.32
2022-08-17T11:32:37.350Z,10.73
2022-08-17T11:35:12.001Z,11.13
2022-08-17T11:37:48.192Z,10.52
2022-08-17T11:40:41.361Z,10.80
2022-08-17T11:43:25.381Z,11.32
2022-08-17T11:46:16.899Z,11.60
2022-08-17T11:49:11.544Z,10.82
2022-08-17T11:52:09.211Z,11.80
2022-08-17T11:54:45.268Z,12.70
2022-08-17T11:57:27.365Z,13.18
2022-08-17T12:00:00.799Z,14.05
2022-08-17T12:02:34.884Z,14.90
2022-08-17T12:05:02.608Z,14.98
2022-08-17T12:07:32.344Z,15.55
2022-08-17T12:10:00.358Z,16.25
2022-08-17T12:12:32.764Z,16.70
2022-08-17T12:15:16.705Z,16.17
2022-08-17T12:17:53.499Z,16.13
2022-08-17T12:20:40.016Z,16.85
2022-08-17T12:23:15.336Z,17.55
2022-08-17T12:26:15.174Z,18.50
2022-08-17T12:28:46.509Z,18.05
2022-08-17T12:31:26.489Z,18.40
2022-08-17T12:33:54.087Z,18.67
2022-08-17T12:36:25.961Z,20.33
2022-08-17T12:38:59.507Z,19.63
2022-08-17T12:41:46.995Z,20.33
2022-08-17T12:44:18.864Z,20.50
2022-08-17T12:46:53.243Z,21.15
2022-08-17T12:49:24.542Z,21.17
2022-08-17T12:51:59.861Z,22.10
2022-08-17T12:54:31.937Z,22.13
2022-08-17T12:57:08.959Z,23.52
2022-08-17T12:59:42.005Z,23.30
2022-08-17T13:02:19.044Z,21.80
2022-08-17T13:04:47.057Z,22.15
2022-08-17T13:07:33.280Z,21.33
2022-08-17T13:10:00.092Z,22.25
2022-08-17T13:12:28.927Z,22.52
2022-08-17T13:14:57.516Z,21.38
2022-08-17T13:17:36.304Z,22.27
2022-08-17T13:20:06.356Z,21.48
2022-08-17T13:22:33.351Z,20.10
2022-08-17T13:25:05.338Z,19.85
2022-08-17T13:27:33.928Z,19.98
2022-08-17T13:30:07.076Z,19.17
2022-08-17T13:32:40.440Z,17.30
2022-08-17T13:35:50.497Z,17.47
2022-08-17T13:38:45.474Z,16.38
2022-08-17T13:41:33.592Z,14.88
2022-08-17T13:44:01.185Z,14.65
2022-08-17T13:46:33.390Z,15.05
2022-08-17T13:49:06.293Z,15.50
2022-08-17T13:51:45.400Z,15.13
2022-08-17T13:54:26.911Z,15.93
2022-08-17T13:56:57.742Z,15.05
2022-08-17T13:59:54.172Z,15.73
2022-08-17T14:02:27.513Z,14.88
2022-08-17T14:04:55.185Z,15.73
2022-08-17T14:07:36.398Z,16.17
2022-08-17T14:10:06.634Z,16.02
2022-08-17T14:12:34.925Z,16.70
2022-08-17T14:15:01.925Z,15.80
2022-08-17T14:17:34.948Z,16.98
2022-08-17T14:20:09.354Z,16.02
2022-08-17T14:22:40.050Z,16.13
2022-08-17T14:25:08.692Z,18.13
2022-08-17T14:27:51.998Z,17.02
2022-08-17T14:30:25.658Z,17.45
2022-08-17T14:32:54.512Z,16.92
2022-08-17T14:35:23.077Z,18.60
2022-08-17T14:37:51.460Z,17.88
2022-08-17T14:40:20.905Z,18.23
2022-08-17T14:42:48.199Z,18.55
2022-08-17T14:45:31.798Z,18.70
2022-08-17T14:48:01.067Z,17.75
2022-08-17T14:50:27.901Z,17.83
2022-08-17T14:52:58.072Z,17.75
2022-08-17T14:55:25.288Z,18.45
2022-08-17T14:57:52.373Z,19.90
2022-08-17T15:00:19.336Z,19.40
2022-08-17T15:02:55.491Z,19.23
2022-08-17T15:05:26.069Z,18.80
2022-08-17T15:07:53.952Z,20.50
2022-08-17T15:10:21.218Z,18.95
2022-08-17T15:12:48.175Z,19.58
2022-08-17T15:15:17.165Z,18.35
2022-08-17T15:17:45.896Z,18.25
2022-08-17T15:20:33.426Z,20.83
2022-08-17T15:23:00.195Z,18.77
2022-08-17T15:25:29.513Z,19.10
2022-08-17T15:27:56.580Z,18.98
2022-08-17T15:30:25.764Z,19.33
2022-08-17T15:32:55.081Z,19.10
2022-08-17T15:35:27.466Z,18.30
2022-08-17T15:37:56.728Z,17.85
2022-08-17T15:40:23.653Z,18.45
2022-08-17T15:42:51.106Z,23.30
2022-08-17T15:45:22.498Z,18.25
2022-08-17T15:47:49.441Z,19.13
2022-08-17T15:50:16.592Z,18.90
2022-08-17T15:52:44.921Z,19.83
2022-08-17T15:55:13.948Z,18.83
2022-08-17T15:57:40.961Z,18.13
2022-08-17T16:00:09.434Z,19.35
2022-08-17T16:03:44.866Z,19.30
2022-08-17T16:05:27.241Z,19.02
2022-08-17T16:07:55.853Z,19.00
2022-08-17T16:10:23.173Z,19.70
2022-08-17T16:13:01.944Z,20.63
2022-08-17T16:15:31.099Z,20.02
2022-08-17T16:17:57.859Z,19.98
2022-08-17T16:20:25.749Z,19.45
2022-08-17T16:22:53.114Z,19.77
2022-08-17T16:25:47.201Z,19.58
2022-08-17T16:28:16.206Z,18.33
2022-08-17T16:30:43.078Z,20.13
2022-08-17T16:33:15.017Z,19.73
2022-08-17T16:35:42.143Z,19.48
2022-08-17T16:38:09.479Z,17.48
2022-08-17T16:40:36.487Z,17.27
2022-08-17T16:43:03.701Z,15.70
2022-08-17T16:45:36.660Z,17.63
2022-08-17T16:48:04.416Z,17.92
2022-08-17T16:50:32.011Z,18.17
2022-08-17T16:53:10.533Z,18.70
2022-08-17T16:55:38.208Z,18.30
2022-08-17T16:58:06.198Z,18.70
2022-08-17T17:00:33.879Z,19.65
2022-08-17T17:03:20.521Z,20.65
2022-08-17T17:06:14.297Z,21.75
2022-08-17T17:08:51.098Z,21.25
2022-08-17T17:11:26.942Z,21.58
2022-08-17T17:13:59.976Z,23.67
2022-08-17T17:16:26.642Z,23.48
2022-08-17T17:19:12.370Z,25.35
2022-08-17T17:21:51.847Z,24.48
2022-08-17T17:24:58.964Z,25.95
2022-08-17T17:27:36.419Z,26.05
2022-08-17T17:30:16.075Z,24.75
2022-08-17T17:32:52.310Z,26.60
2022-08-17T17:35:25.642Z,26.38
2022-08-17T17:37:54.174Z,27.17
2022-08-17T17:40:31.882Z,26.48
2022-08-17T17:43:20.454Z,25.48
2022-08-17T17:45:53.484Z,26.98
2022-08-17T17:48:20.707Z,26.48
2022-08-17T17:51:13.018Z,27.93
2022-08-17T17:53:45.606Z,27.95
2022-08-17T17:56:44.225Z,29.33
2022-08-17T17:59:50.814Z,29.35
2022-08-17T18:02:44.804Z,27.90
2022-08-17T18:05:38.601Z,25.90
2022-08-17T18:08:14.096Z,26.65
2022-08-17T18:10:56.068Z,27.08
2022-08-17T18:13:32.591Z,28.55
2022-08-17T18:16:01.048Z,28.65
2022-08-17T18:18:39.252Z,27.65
2022-08-17T18:21:15.684Z,28.35
2022-08-17T18:24:00.345Z,28.27
2022-08-17T18:26:33.217Z,27.05
2022-08-17T18:29:01.647Z,28.67
2022-08-17T18:31:28.449Z,27.77
2022-08-17T18:34:45.954Z,27.95
2022-08-17T18:37:12.789Z,28.83
2022-08-17T18:39:42.995Z,28.48
2022-08-17T18:44:54.934Z,27.58
2022-08-17T18:47:23.769Z,27.90
2022-08-17T18:49:57.841Z,25.65
2022-08-17T18:52:33.208Z,24.85
2022-08-17T18:55:05.932Z,23.15
2022-08-17T18:57:34.876Z,23.20
2022-08-17T19:00:10.001Z,24.15
2022-08-17T19:02:53.559Z,23.88
2022-08-17T19:05:33.006Z,22.73
2022-08-17T19:08:33.629Z,22.77
2022-08-17T19:11:25.856Z,22.73
2022-08-17T19:14:02.661Z,22.10
2022-08-17T19:16:36.526Z,22.17
2022-08-17T19:19:14.280Z,22.85
2022-08-17T19:21:47.070Z,23.17
2022-08-17T19:24:29.994Z,23.42
2022-08-17T19:27:24.950Z,23.52
2022-08-17T19:30:08.391Z,23.30
2022-08-17T19:32:36.298Z,22.70
2022-08-17T19:35:05.851Z,22.98
2022-08-17T19:37:37.015Z,22.40
2022-08-17T19:40:52.245Z,22.45
2022-08-17T19:43:53.499Z,22.98
2022-08-17T19:46:35.942Z,23.25
2022-08-17T19:49:32.926Z,22.83
2022-08-17T19:52:22.154Z,22.77
2022-08-17T19:55:02.354Z,23.23
2022-08-17T19:57:50.626Z,22.98
2022-08-17T20:00:18.834Z,22.80
2022-08-17T20:06:15.080Z,22.83
2022-08-17T20:08:57.239Z,21.52
2022-08-17T20:11:45.640Z,22.38
2022-08-17T20:14:15.935Z,24.77
2022-08-17T20:16:44.169Z,23.45
2022-08-17T20:22:04.041Z,21.20
2022-08-17T20:24:52.670Z,20.77
2022-08-17T20:27:27.994Z,22.00
2022-08-17T20:30:04.545Z,19.70
2022-08-17T20:32:47.996Z,19.95
2022-08-17T20:35:28.311Z,18.92
2022-08-17T20:38:31.298Z,18.67
2022-08-17T20:41:01.139Z,18.50
2022-08-17T20:43:33.850Z,18.40
2022-08-17T20:46:37.258Z,17.50
2022-08-17T20:49:38.509Z,16.98
2022-08-17T20:52:10.273Z,17.58
2022-08-17T20:55:04.494Z,16.10
2022-08-17T20:57:31.509Z,17.73
2022-08-17T21:00:17.222Z,17.90
2022-08-17T21:02:50.870Z,16.08
2022-08-17T21:05:37.214Z,16.13
2022-08-17T21:08:13.092Z,16.63
2022-08-17T21:10:41.809Z,15.80
2022-08-17T21:13:10.139Z,15.90
2022-08-17T21:15:50.040Z,15.20
2022-08-17T21:18:32.995Z,16.55
2022-08-17T21:21:17.250Z,14.70
2022-08-17T21:24:22.208Z,14.45
2022-08-17T21:27:08.164Z,13.13
2022-08-17T21:29:50.380Z,11.88
2022-08-17T21:32:28.099Z,12.70
2022-08-17T21:35:06.811Z,11.82
2022-08-17T21:37:44.113Z,10.60
2022-08-17T21:40:10.895Z,11.10
2022-08-17T21:43:31.792Z,11.75
2022-08-17T21:46:04.202Z,10.35
2022-08-17T21:48:41.647Z,11.82
2022-08-17T21:51:12.166Z,10.90
2022-08-17T21:53:52.231Z,9.85
2022-08-17T21:56:40.627Z,10.30
2022-08-17T21:59:19.547Z,10.07
2022-08-17T22:01:59.244Z,10.00
2022-08-17T22:04:33.420Z,10.55
2022-08-17T22:07:05.342Z,10.55
2022-08-17T22:09:50.317Z,9.48
2022-08-17T22:12:18.830Z,9.95
2022-08-17T22:15:07.314Z,11.02
2022-08-17T22:17:45.195Z,10.85
2022-08-17T22:20:20.596Z,9.93
2022-08-17T22:23:08.890Z,10.25
2022-08-17T22:25:41.128Z,9.98
2022-08-17T22:28:10.727Z,10.35
2022-08-17T22:30:42.504Z,9.90
2022-08-17T22:33:27.967Z,11.18
2022-08-17T22:36:30.799Z,10.52
2022-08-17T22:39:23.045Z,10.10
2022-08-17T22:41:59.337Z,10.00
2022-08-17T22:44:37.737Z,9.63
2022-08-17T22:47:21.549Z,9.82
2022-08-17T22:50:01.287Z,10.10
2022-08-17T22:52:32.147Z,10.25
2022-08-17T22:55:26.654Z,10.25
2022-08-17T22:58:12.182Z,10.30
2022-08-17T23:00:43.213Z,10.02
2022-08-17T23:03:11.680Z,10.25
2022-08-17T23:05:42.908Z,9.93
2022-08-17T23:08:11.529Z,9.63
2022-08-17T23:10:41.239Z,9.98
2022-08-17T23:13:11.877Z,9.65
2022-08-17T23:15:40.959Z,10.48
2022-08-17T23:18:08.173Z,9.65
2022-08-17T23:20:40.246Z,10.02
2022-08-17T23:23:08.963Z,10.20
2022-08-17T23:25:36.170Z,9.90
2022-08-17T23:28:05.543Z,10.18
2022-08-17T23:30:35.796Z,10.85
2022-08-17T23:33:08.841Z,11.02
2022-08-17T23:35:39.575Z,10.57
2022-08-17T23:38:09.113Z,11.75
2022-08-17T23:43:11.458Z,11.05
2022-08-17T23:45:57.366Z,11.02
2022-08-17T23:48:35.133Z,11.68
2022-08-17T23:51:10.655Z,11.00
2022-08-17T23:53:46.284Z,11.02
2022-08-17T23:56:13.444Z,11.85
2022-08-17T23:58:42.752Z,11.00
